sensor_id;sensor_type;location;lat;lon;timestamp;P1;durP1;ratioP1;P2;durP2;ratioP2
76284;SDS011;65096;50.998;7.098;2023-03-01T00:01:17;11.95;;;6.05;;
76284;SDS011;65096;50.998;7.098;2023-03-01T00:03:45;11.75;;;6.20;;
76284;SDS011;65096;50.998;7.098;2023-03-01T00:06:12;12.10;;;6.63;;
76284;SDS011;65096;50.998;7.098;2023-03-01T00:08:39;10.23;;;6.05;;
76284;SDS011;65096;50.998;7.098;2023-03-01T00:11:08;14.20;;;6.53;;
76284;SDS011;65096;50.998;7.098;2023-03-01T00:13:38;11.07;;;6.43;;
76284;SDS011;65096;50.998;7.098;2023-03-01T00:16:05;11.70;;;5.78;;
76284;SDS011;65096;50.998;7.098;2023-03-01T00:18:34;10.45;;;5.75;;
76284;SDS011;65096;50.998;7.098;2023-03-01T00:21:01;13.52;;;6.10;;
76284;SDS011;65096;50.998;7.098;2023-03-01T00:23:28;11.80;;;6.00;;
76284;SDS011;65096;50.998;7.098;2023-03-01T00:25:55;10.68;;;5.80;;
76284;SDS011;65096;50.998;7.098;2023-03-01T00:28:23;10.27;;;6.43;;
76284;SDS011;65096;50.998;7.098;2023-03-01T00:30:50;10.75;;;5.90;;
76284;SDS011;65096;50.998;7.098;2023-03-01T00:33:16;11.25;;;5.35;;
76284;SDS011;65096;50.998;7.098;2023-03-01T00:35:43;10.90;;;5.75;;
76284;SDS011;65096;50.998;7.098;2023-03-01T00:38:10;10.20;;;5.55;;
76284;SDS011;65096;50.998;7.098;2023-03-01T00:40:37;9.20;;;5.38;;
76284;SDS011;65096;50.998;7.098;2023-03-01T00:43:04;11.50;;;6.35;;
76284;SDS011;65096;50.998;7.098;2023-03-01T00:45:32;11.40;;;6.03;;
76284;SDS011;65096;50.998;7.098;2023-03-01T00:47:59;11.13;;;5.93;;
76284;SDS011;65096;50.998;7.098;2023-03-01T00:50:28;10.13;;;5.30;;
76284;SDS011;65096;50.998;7.098;2023-03-01T00:52:56;10.25;;;5.82;;
76284;SDS011;65096;50.998;7.098;2023-03-01T00:57:50;12.10;;;5.70;;
76284;SDS011;65096;50.998;7.098;2023-03-01T01:00:17;9.27;;;5.20;;
76284;SDS011;65096;50.998;7.098;2023-03-01T01:02:46;9.55;;;6.20;;
76284;SDS011;65096;50.998;7.098;2023-03-01T01:05:12;11.80;;;5.63;;
76284;SDS011;65096;50.998;7.098;2023-03-01T01:07:39;11.57;;;6.22;;
76284;SDS011;65096;50.998;7.098;2023-03-01T01:10:06;11.88;;;5.57;;
76284;SDS011;65096;50.998;7.098;2023-03-01T01:12:37;10.65;;;6.25;;
76284;SDS011;65096;50.998;7.098;2023-03-01T01:15:05;9.13;;;5.70;;
76284;SDS011;65096;50.998;7.098;2023-03-01T01:17:33;12.55;;;5.63;;
76284;SDS011;65096;50.998;7.098;2023-03-01T01:20:01;10.50;;;6.00;;
76284;SDS011;65096;50.998;7.098;2023-03-01T01:22:27;10.02;;;5.82;;
76284;SDS011;65096;50.998;7.098;2023-03-01T01:24:54;11.07;;;5.10;;
76284;SDS011;65096;50.998;7.098;2023-03-01T01:27:21;10.32;;;5.82;;
76284;SDS011;65096;50.998;7.098;2023-03-01T01:29:48;12.75;;;5.63;;
76284;SDS011;65096;50.998;7.098;2023-03-01T01:32:14;12.55;;;5.82;;
76284;SDS011;65096;50.998;7.098;2023-03-01T01:37:09;9.15;;;5.47;;
76284;SDS011;65096;50.998;7.098;2023-03-01T01:39:36;9.15;;;5.25;;
76284;SDS011;65096;50.998;7.098;2023-03-01T01:44:30;10.98;;;5.53;;
76284;SDS011;65096;50.998;7.098;2023-03-01T01:49:29;11.35;;;5.32;;
76284;SDS011;65096;50.998;7.098;2023-03-01T01:52:04;10.00;;;5.72;;
76284;SDS011;65096;50.998;7.098;2023-03-01T01:54:38;10.27;;;5.47;;
76284;SDS011;65096;50.998;7.098;2023-03-01T01:57:11;9.73;;;5.82;;
76284;SDS011;65096;50.998;7.098;2023-03-01T01:59:41;9.68;;;6.03;;
76284;SDS011;65096;50.998;7.098;2023-03-01T02:02:11;9.88;;;6.00;;
76284;SDS011;65096;50.998;7.098;2023-03-01T02:04:39;11.65;;;5.38;;
76284;SDS011;65096;50.998;7.098;2023-03-01T02:07:08;10.30;;;5.60;;
76284;SDS011;65096;50.998;7.098;2023-03-01T02:09:41;10.57;;;5.70;;
76284;SDS011;65096;50.998;7.098;2023-03-01T02:12:11;9.07;;;6.10;;
76284;SDS011;65096;50.998;7.098;2023-03-01T02:14:39;10.25;;;5.80;;
76284;SDS011;65096;50.998;7.098;2023-03-01T02:17:06;11.70;;;6.15;;
76284;SDS011;65096;50.998;7.098;2023-03-01T02:19:37;11.35;;;6.05;;
76284;SDS011;65096;50.998;7.098;2023-03-01T02:22:13;11.73;;;5.93;;
76284;SDS011;65096;50.998;7.098;2023-03-01T02:24:48;11.18;;;6.15;;
76284;SDS011;65096;50.998;7.098;2023-03-01T02:27:26;12.70;;;6.43;;
76284;SDS011;65096;50.998;7.098;2023-03-01T02:30:01;11.13;;;6.00;;
76284;SDS011;65096;50.998;7.098;2023-03-01T02:32:28;10.70;;;5.95;;
76284;SDS011;65096;50.998;7.098;2023-03-01T02:34:54;11.82;;;5.80;;
76284;SDS011;65096;50.998;7.098;2023-03-01T02:37:22;10.95;;;5.63;;
76284;SDS011;65096;50.998;7.098;2023-03-01T02:39:53;12.32;;;6.03;;
76284;SDS011;65096;50.998;7.098;2023-03-01T02:44:54;11.88;;;5.93;;
76284;SDS011;65096;50.998;7.098;2023-03-01T02:47:22;10.35;;;5.78;;
76284;SDS011;65096;50.998;7.098;2023-03-01T02:49:49;10.95;;;5.95;;
76284;SDS011;65096;50.998;7.098;2023-03-01T02:54:54;11.60;;;6.22;;
76284;SDS011;65096;50.998;7.098;2023-03-01T02:57:25;11.57;;;6.10;;
76284;SDS011;65096;50.998;7.098;2023-03-01T02:59:53;11.85;;;5.57;;
76284;SDS011;65096;50.998;7.098;2023-03-01T03:02:23;10.60;;;5.93;;
76284;SDS011;65096;50.998;7.098;2023-03-01T03:05:01;11.98;;;6.32;;
76284;SDS011;65096;50.998;7.098;2023-03-01T03:07:33;13.23;;;7.40;;
76284;SDS011;65096;50.998;7.098;2023-03-01T03:10:01;12.45;;;6.65;;
76284;SDS011;65096;50.998;7.098;2023-03-01T03:12:28;12.25;;;6.47;;
76284;SDS011;65096;50.998;7.098;2023-03-01T03:17:22;11.90;;;6.43;;
76284;SDS011;65096;50.998;7.098;2023-03-01T03:19:49;11.85;;;6.15;;
76284;SDS011;65096;50.998;7.098;2023-03-01T03:22:16;11.00;;;6.28;;
76284;SDS011;65096;50.998;7.098;2023-03-01T03:24:43;13.85;;;6.55;;
76284;SDS011;65096;50.998;7.098;2023-03-01T03:27:10;11.75;;;6.53;;
76284;SDS011;65096;50.998;7.098;2023-03-01T03:29:36;12.18;;;7.00;;
76284;SDS011;65096;50.998;7.098;2023-03-01T03:32:03;12.90;;;7.13;;
76284;SDS011;65096;50.998;7.098;2023-03-01T03:34:31;12.20;;;6.53;;
76284;SDS011;65096;50.998;7.098;2023-03-01T03:36:58;12.45;;;6.32;;
76284;SDS011;65096;50.998;7.098;2023-03-01T03:39:25;12.40;;;6.93;;
76284;SDS011;65096;50.998;7.098;2023-03-01T03:41:54;11.52;;;6.60;;
76284;SDS011;65096;50.998;7.098;2023-03-01T03:44:21;13.27;;;7.32;;
76284;SDS011;65096;50.998;7.098;2023-03-01T03:46:47;11.02;;;6.40;;
76284;SDS011;65096;50.998;7.098;2023-03-01T03:49:14;11.15;;;6.40;;
76284;SDS011;65096;50.998;7.098;2023-03-01T03:51:42;13.73;;;7.22;;
76284;SDS011;65096;50.998;7.098;2023-03-01T03:54:11;11.05;;;6.40;;
76284;SDS011;65096;50.998;7.098;2023-03-01T03:56:38;12.73;;;7.22;;
76284;SDS011;65096;50.998;7.098;2023-03-01T03:59:05;12.60;;;6.82;;
76284;SDS011;65096;50.998;7.098;2023-03-01T04:03:58;11.23;;;6.65;;
76284;SDS011;65096;50.998;7.098;2023-03-01T04:06:29;11.65;;;7.30;;
76284;SDS011;65096;50.998;7.098;2023-03-01T04:08:57;14.10;;;7.63;;
76284;SDS011;65096;50.998;7.098;2023-03-01T04:11:27;12.77;;;7.15;;
76284;SDS011;65096;50.998;7.098;2023-03-01T04:13:55;11.95;;;6.75;;
76284;SDS011;65096;50.998;7.098;2023-03-01T04:16:23;13.50;;;7.20;;
76284;SDS011;65096;50.998;7.098;2023-03-01T04:18:50;12.55;;;7.43;;
76284;SDS011;65096;50.998;7.098;2023-03-01T04:21:17;11.40;;;7.03;;
76284;SDS011;65096;50.998;7.098;2023-03-01T04:23:45;13.48;;;7.47;;
76284;SDS011;65096;50.998;7.098;2023-03-01T04:26:13;12.38;;;7.20;;
76284;SDS011;65096;50.998;7.098;2023-03-01T04:28:40;13.38;;;7.18;;
76284;SDS011;65096;50.998;7.098;2023-03-01T04:31:11;13.10;;;7.00;;
76284;SDS011;65096;50.998;7.098;2023-03-01T04:33:42;12.40;;;6.70;;
76284;SDS011;65096;50.998;7.098;2023-03-01T04:36:11;12.90;;;7.13;;
76284;SDS011;65096;50.998;7.098;2023-03-01T04:38:39;14.82;;;8.55;;
76284;SDS011;65096;50.998;7.098;2023-03-01T04:41:07;14.15;;;7.40;;
76284;SDS011;65096;50.998;7.098;2023-03-01T04:43:36;14.80;;;7.35;;
76284;SDS011;65096;50.998;7.098;2023-03-01T04:46:03;13.68;;;6.97;;
76284;SDS011;65096;50.998;7.098;2023-03-01T04:48:33;13.75;;;7.30;;
76284;SDS011;65096;50.998;7.098;2023-03-01T04:51:00;13.30;;;7.32;;
76284;SDS011;65096;50.998;7.098;2023-03-01T04:53:28;12.00;;;6.20;;
76284;SDS011;65096;50.998;7.098;2023-03-01T04:55:55;15.20;;;7.68;;
76284;SDS011;65096;50.998;7.098;2023-03-01T04:58:22;14.48;;;8.52;;
76284;SDS011;65096;50.998;7.098;2023-03-01T05:00:50;13.10;;;7.28;;
76284;SDS011;65096;50.998;7.098;2023-03-01T05:03:17;15.27;;;8.13;;
76284;SDS011;65096;50.998;7.098;2023-03-01T05:05:45;14.88;;;7.38;;
76284;SDS011;65096;50.998;7.098;2023-03-01T05:08:13;11.88;;;6.95;;
76284;SDS011;65096;50.998;7.098;2023-03-01T05:10:44;16.52;;;7.93;;
76284;SDS011;65096;50.998;7.098;2023-03-01T05:13:12;14.35;;;8.05;;
76284;SDS011;65096;50.998;7.098;2023-03-01T05:15:40;13.20;;;8.23;;
76284;SDS011;65096;50.998;7.098;2023-03-01T05:18:08;11.40;;;6.65;;
76284;SDS011;65096;50.998;7.098;2023-03-01T05:20:36;15.40;;;8.20;;
76284;SDS011;65096;50.998;7.098;2023-03-01T05:23:04;13.30;;;7.63;;
76284;SDS011;65096;50.998;7.098;2023-03-01T05:25:31;15.20;;;8.00;;
76284;SDS011;65096;50.998;7.098;2023-03-01T05:27:59;17.15;;;8.10;;
76284;SDS011;65096;50.998;7.098;2023-03-01T05:30:29;15.98;;;8.95;;
76284;SDS011;65096;50.998;7.098;2023-03-01T05:32:57;16.05;;;8.93;;
76284;SDS011;65096;50.998;7.098;2023-03-01T05:35:26;24.38;;;11.45;;
76284;SDS011;65096;50.998;7.098;2023-03-01T05:37:52;21.13;;;11.52;;
76284;SDS011;65096;50.998;7.098;2023-03-01T05:40:20;28.52;;;13.30;;
76284;SDS011;65096;50.998;7.098;2023-03-01T05:42:50;21.77;;;12.02;;
76284;SDS011;65096;50.998;7.098;2023-03-01T05:45:19;20.45;;;10.82;;
76284;SDS011;65096;50.998;7.098;2023-03-01T05:47:47;15.90;;;7.90;;
76284;SDS011;65096;50.998;7.098;2023-03-01T05:50:15;17.13;;;8.32;;
76284;SDS011;65096;50.998;7.098;2023-03-01T05:52:46;14.48;;;8.18;;
76284;SDS011;65096;50.998;7.098;2023-03-01T05:55:14;13.20;;;7.55;;
76284;SDS011;65096;50.998;7.098;2023-03-01T05:57:41;14.20;;;8.07;;
76284;SDS011;65096;50.998;7.098;2023-03-01T06:00:10;15.95;;;7.85;;
76284;SDS011;65096;50.998;7.098;2023-03-01T06:02:38;16.75;;;8.82;;
76284;SDS011;65096;50.998;7.098;2023-03-01T06:05:05;15.73;;;8.27;;
76284;SDS011;65096;50.998;7.098;2023-03-01T06:07:33;16.80;;;8.07;;
76284;SDS011;65096;50.998;7.098;2023-03-01T06:10:01;16.45;;;7.75;;
76284;SDS011;65096;50.998;7.098;2023-03-01T06:12:30;16.20;;;7.82;;
76284;SDS011;65096;50.998;7.098;2023-03-01T06:14:57;16.73;;;8.52;;
76284;SDS011;65096;50.998;7.098;2023-03-01T06:17:25;14.07;;;8.50;;
76284;SDS011;65096;50.998;7.098;2023-03-01T06:19:52;16.27;;;7.60;;
76284;SDS011;65096;50.998;7.098;2023-03-01T06:22:19;12.93;;;6.63;;
76284;SDS011;65096;50.998;7.098;2023-03-01T06:27:13;17.35;;;7.85;;
76284;SDS011;65096;50.998;7.098;2023-03-01T06:29:40;16.33;;;8.63;;
76284;SDS011;65096;50.998;7.098;2023-03-01T06:34:33;14.48;;;8.13;;
76284;SDS011;65096;50.998;7.098;2023-03-01T06:37:00;15.48;;;8.23;;
76284;SDS011;65096;50.998;7.098;2023-03-01T06:39:30;15.13;;;8.98;;
76284;SDS011;65096;50.998;7.098;2023-03-01T06:41:56;17.42;;;9.18;;
76284;SDS011;65096;50.998;7.098;2023-03-01T06:44:25;19.20;;;8.43;;
76284;SDS011;65096;50.998;7.098;2023-03-01T06:46:51;16.35;;;9.43;;
76284;SDS011;65096;50.998;7.098;2023-03-01T06:49:18;21.08;;;10.57;;
76284;SDS011;65096;50.998;7.098;2023-03-01T06:54:11;16.00;;;8.40;;
76284;SDS011;65096;50.998;7.098;2023-03-01T06:56:39;17.48;;;8.70;;
76284;SDS011;65096;50.998;7.098;2023-03-01T06:59:05;17.65;;;8.45;;
76284;SDS011;65096;50.998;7.098;2023-03-01T07:04:00;18.15;;;9.10;;
76284;SDS011;65096;50.998;7.098;2023-03-01T07:06:26;15.68;;;9.15;;
76284;SDS011;65096;50.998;7.098;2023-03-01T07:08:53;17.65;;;9.05;;
76284;SDS011;65096;50.998;7.098;2023-03-01T07:13:46;19.85;;;8.85;;
76284;SDS011;65096;50.998;7.098;2023-03-01T07:16:13;15.18;;;8.40;;
76284;SDS011;65096;50.998;7.098;2023-03-01T07:18:41;17.75;;;8.18;;
76284;SDS011;65096;50.998;7.098;2023-03-01T07:21:09;16.05;;;8.88;;
76284;SDS011;65096;50.998;7.098;2023-03-01T07:23:38;14.88;;;8.82;;
76284;SDS011;65096;50.998;7.098;2023-03-01T07:28:31;16.27;;;8.60;;
76284;SDS011;65096;50.998;7.098;2023-03-01T07:31:01;18.58;;;9.30;;
76284;SDS011;65096;50.998;7.098;2023-03-01T07:33:28;17.33;;;9.35;;
76284;SDS011;65096;50.998;7.098;2023-03-01T07:35:57;15.13;;;8.63;;
76284;SDS011;65096;50.998;7.098;2023-03-01T07:38:24;16.45;;;8.32;;
76284;SDS011;65096;50.998;7.098;2023-03-01T07:40:51;16.20;;;8.13;;
76284;SDS011;65096;50.998;7.098;2023-03-01T07:43:18;15.65;;;9.05;;
76284;SDS011;65096;50.998;7.098;2023-03-01T07:45:45;14.60;;;8.88;;
76284;SDS011;65096;50.998;7.098;2023-03-01T07:48:12;17.52;;;8.98;;
76284;SDS011;65096;50.998;7.098;2023-03-01T07:50:39;14.02;;;8.13;;
76284;SDS011;65096;50.998;7.098;2023-03-01T07:53:07;13.98;;;7.63;;
76284;SDS011;65096;50.998;7.098;2023-03-01T07:55:35;16.77;;;8.38;;
76284;SDS011;65096;50.998;7.098;2023-03-01T07:58:02;15.55;;;8.85;;
76284;SDS011;65096;50.998;7.098;2023-03-01T08:00:28;15.35;;;8.02;;
76284;SDS011;65096;50.998;7.098;2023-03-01T08:02:58;14.75;;;8.00;;
76284;SDS011;65096;50.998;7.098;2023-03-01T08:05:25;16.80;;;8.98;;
76284;SDS011;65096;50.998;7.098;2023-03-01T08:07:52;15.18;;;8.32;;
76284;SDS011;65096;50.998;7.098;2023-03-01T08:10:20;13.90;;;8.68;;
76284;SDS011;65096;50.998;7.098;2023-03-01T08:12:47;14.35;;;8.77;;
76284;SDS011;65096;50.998;7.098;2023-03-01T08:15:13;16.98;;;9.88;;
76284;SDS011;65096;50.998;7.098;2023-03-01T08:17:43;15.80;;;7.32;;
76284;SDS011;65096;50.998;7.098;2023-03-01T08:20:10;14.25;;;7.95;;
76284;SDS011;65096;50.998;7.098;2023-03-01T08:22:37;14.95;;;8.20;;
76284;SDS011;65096;50.998;7.098;2023-03-01T08:25:04;14.50;;;8.15;;
76284;SDS011;65096;50.998;7.098;2023-03-01T08:27:33;15.95;;;8.68;;
76284;SDS011;65096;50.998;7.098;2023-03-01T08:29:59;16.60;;;8.98;;
76284;SDS011;65096;50.998;7.098;2023-03-01T08:32:26;15.52;;;8.43;;
76284;SDS011;65096;50.998;7.098;2023-03-01T08:34:53;13.15;;;7.57;;
76284;SDS011;65096;50.998;7.098;2023-03-01T08:37:20;14.73;;;8.32;;
76284;SDS011;65096;50.998;7.098;2023-03-01T08:39:46;14.43;;;8.52;;
76284;SDS011;65096;50.998;7.098;2023-03-01T08:42:13;14.40;;;7.80;;
76284;SDS011;65096;50.998;7.098;2023-03-01T08:44:41;14.90;;;8.07;;
76284;SDS011;65096;50.998;7.098;2023-03-01T08:47:08;15.38;;;8.52;;
76284;SDS011;65096;50.998;7.098;2023-03-01T08:49:35;12.40;;;7.72;;
76284;SDS011;65096;50.998;7.098;2023-03-01T08:52:01;15.35;;;7.82;;
76284;SDS011;65096;50.998;7.098;2023-03-01T08:54:28;14.73;;;8.40;;
76284;SDS011;65096;50.998;7.098;2023-03-01T08:56:55;15.00;;;8.32;;
76284;SDS011;65096;50.998;7.098;2023-03-01T08:59:24;12.75;;;8.27;;
76284;SDS011;65096;50.998;7.098;2023-03-01T09:01:53;13.00;;;7.70;;
76284;SDS011;65096;50.998;7.098;2023-03-01T09:04:19;11.15;;;5.78;;
76284;SDS011;65096;50.998;7.098;2023-03-01T09:06:46;14.80;;;8.45;;
76284;SDS011;65096;50.998;7.098;2023-03-01T09:09:13;12.30;;;8.00;;
76284;SDS011;65096;50.998;7.098;2023-03-01T09:11:41;14.65;;;7.20;;
76284;SDS011;65096;50.998;7.098;2023-03-01T09:14:08;14.95;;;8.90;;
76284;SDS011;65096;50.998;7.098;2023-03-01T09:16:35;13.57;;;8.07;;
76284;SDS011;65096;50.998;7.098;2023-03-01T09:19:04;13.15;;;8.02;;
76284;SDS011;65096;50.998;7.098;2023-03-01T09:21:30;14.63;;;7.82;;
76284;SDS011;65096;50.998;7.098;2023-03-01T09:23:57;12.65;;;7.70;;
76284;SDS011;65096;50.998;7.098;2023-03-01T09:26:24;14.15;;;7.60;;
76284;SDS011;65096;50.998;7.098;2023-03-01T09:28:52;14.52;;;8.27;;
76284;SDS011;65096;50.998;7.098;2023-03-01T09:31:20;15.13;;;8.05;;
76284;SDS011;65096;50.998;7.098;2023-03-01T09:33:51;13.68;;;7.13;;
76284;SDS011;65096;50.998;7.098;2023-03-01T09:36:21;13.48;;;7.70;;
76284;SDS011;65096;50.998;7.098;2023-03-01T09:38:50;14.35;;;8.27;;
76284;SDS011;65096;50.998;7.098;2023-03-01T09:44:30;15.20;;;8.45;;
76284;SDS011;65096;50.998;7.098;2023-03-01T09:47:00;14.95;;;8.02;;
76284;SDS011;65096;50.998;7.098;2023-03-01T09:49:28;15.07;;;8.75;;
76284;SDS011;65096;50.998;7.098;2023-03-01T09:51:59;13.60;;;8.15;;
76284;SDS011;65096;50.998;7.098;2023-03-01T09:54:29;12.82;;;8.18;;
76284;SDS011;65096;50.998;7.098;2023-03-01T09:57:03;15.18;;;9.25;;
76284;SDS011;65096;50.998;7.098;2023-03-01T09:59:39;13.90;;;7.45;;
76284;SDS011;65096;50.998;7.098;2023-03-01T10:02:23;15.00;;;7.57;;
76284;SDS011;65096;50.998;7.098;2023-03-01T10:04:55;13.25;;;8.35;;
76284;SDS011;65096;50.998;7.098;2023-03-01T10:07:36;12.98;;;8.23;;
76284;SDS011;65096;50.998;7.098;2023-03-01T10:10:15;13.10;;;8.20;;
76284;SDS011;65096;50.998;7.098;2023-03-01T10:12:50;14.63;;;7.93;;
76284;SDS011;65096;50.998;7.098;2023-03-01T10:15:18;12.85;;;7.93;;
76284;SDS011;65096;50.998;7.098;2023-03-01T10:17:51;12.35;;;7.57;;
76284;SDS011;65096;50.998;7.098;2023-03-01T10:20:23;14.40;;;7.90;;
76284;SDS011;65096;50.998;7.098;2023-03-01T10:22:53;11.52;;;7.25;;
76284;SDS011;65096;50.998;7.098;2023-03-01T10:25:35;13.63;;;7.75;;
76284;SDS011;65096;50.998;7.098;2023-03-01T10:28:10;13.07;;;7.95;;
76284;SDS011;65096;50.998;7.098;2023-03-01T10:30:43;15.73;;;8.40;;
76284;SDS011;65096;50.998;7.098;2023-03-01T10:33:13;11.40;;;7.53;;
76284;SDS011;65096;50.998;7.098;2023-03-01T10:35:43;13.40;;;8.13;;
76284;SDS011;65096;50.998;7.098;2023-03-01T10:38:14;14.02;;;8.63;;
76284;SDS011;65096;50.998;7.098;2023-03-01T10:40:52;14.23;;;8.77;;
76284;SDS011;65096;50.998;7.098;2023-03-01T10:43:24;14.05;;;8.40;;
76284;SDS011;65096;50.998;7.098;2023-03-01T10:45:53;12.40;;;7.65;;
76284;SDS011;65096;50.998;7.098;2023-03-01T10:48:20;13.27;;;7.18;;
76284;SDS011;65096;50.998;7.098;2023-03-01T10:50:51;13.88;;;7.13;;
76284;SDS011;65096;50.998;7.098;2023-03-01T10:53:34;13.40;;;8.93;;
76284;SDS011;65096;50.998;7.098;2023-03-01T10:56:04;12.18;;;7.97;;
76284;SDS011;65096;50.998;7.098;2023-03-01T10:58:33;13.60;;;8.55;;
76284;SDS011;65096;50.998;7.098;2023-03-01T11:01:02;13.85;;;8.02;;
76284;SDS011;65096;50.998;7.098;2023-03-01T11:03:31;13.98;;;8.32;;
76284;SDS011;65096;50.998;7.098;2023-03-01T11:06:04;13.27;;;8.02;;
76284;SDS011;65096;50.998;7.098;2023-03-01T11:08:47;12.52;;;7.53;;
76284;SDS011;65096;50.998;7.098;2023-03-01T11:13:57;12.88;;;8.30;;
76284;SDS011;65096;50.998;7.098;2023-03-01T11:16:26;13.82;;;7.28;;
76284;SDS011;65096;50.998;7.098;2023-03-01T11:18:56;14.00;;;8.32;;
76284;SDS011;65096;50.998;7.098;2023-03-01T11:21:24;12.38;;;7.68;;
76284;SDS011;65096;50.998;7.098;2023-03-01T11:23:55;11.73;;;7.05;;
76284;SDS011;65096;50.998;7.098;2023-03-01T11:26:26;13.82;;;7.72;;
76284;SDS011;65096;50.998;7.098;2023-03-01T11:28:58;13.43;;;7.85;;
76284;SDS011;65096;50.998;7.098;2023-03-01T11:31:30;11.43;;;7.75;;
76284;SDS011;65096;50.998;7.098;2023-03-01T11:33:59;11.82;;;7.60;;
76284;SDS011;65096;50.998;7.098;2023-03-01T11:36:32;11.80;;;7.88;;
76284;SDS011;65096;50.998;7.098;2023-03-01T11:39:05;11.63;;;7.13;;
76284;SDS011;65096;50.998;7.098;2023-03-01T11:41:44;11.82;;;7.15;;
76284;SDS011;65096;50.998;7.098;2023-03-01T11:44:18;12.07;;;6.85;;
76284;SDS011;65096;50.998;7.098;2023-03-01T11:46:52;11.77;;;6.55;;
76284;SDS011;65096;50.998;7.098;2023-03-01T11:49:40;11.93;;;6.72;;
76284;SDS011;65096;50.998;7.098;2023-03-01T11:52:24;11.45;;;6.63;;
76284;SDS011;65096;50.998;7.098;2023-03-01T11:55:07;11.43;;;6.45;;
76284;SDS011;65096;50.998;7.098;2023-03-01T11:57:49;12.57;;;6.72;;
76284;SDS011;65096;50.998;7.098;2023-03-01T12:00:38;14.45;;;6.95;;
76284;SDS011;65096;50.998;7.098;2023-03-01T12:03:25;11.13;;;6.88;;
76284;SDS011;65096;50.998;7.098;2023-03-01T12:06:02;12.13;;;6.90;;
76284;SDS011;65096;50.998;7.098;2023-03-01T12:08:40;11.45;;;7.20;;
76284;SDS011;65096;50.998;7.098;2023-03-01T12:11:15;11.98;;;6.35;;
76284;SDS011;65096;50.998;7.098;2023-03-01T12:13:56;10.23;;;5.90;;
76284;SDS011;65096;50.998;7.098;2023-03-01T12:16:54;10.30;;;6.00;;
76284;SDS011;65096;50.998;7.098;2023-03-01T12:19:31;12.60;;;5.55;;
76284;SDS011;65096;50.998;7.098;2023-03-01T12:22:09;13.90;;;6.95;;
76284;SDS011;65096;50.998;7.098;2023-03-01T12:24:53;9.23;;;5.50;;
76284;SDS011;65096;50.998;7.098;2023-03-01T12:27:39;11.43;;;5.50;;
76284;SDS011;65096;50.998;7.098;2023-03-01T12:30:32;11.85;;;7.18;;
76284;SDS011;65096;50.998;7.098;2023-03-01T12:33:17;10.65;;;6.63;;
76284;SDS011;65096;50.998;7.098;2023-03-01T12:36:04;10.55;;;6.10;;
76284;SDS011;65096;50.998;7.098;2023-03-01T12:38:46;10.32;;;5.38;;
76284;SDS011;65096;50.998;7.098;2023-03-01T12:41:28;10.45;;;5.68;;
76284;SDS011;65096;50.998;7.098;2023-03-01T12:44:20;11.18;;;6.40;;
76284;SDS011;65096;50.998;7.098;2023-03-01T12:46:58;10.45;;;5.90;;
76284;SDS011;65096;50.998;7.098;2023-03-01T12:49:34;12.30;;;6.85;;
76284;SDS011;65096;50.998;7.098;2023-03-01T12:52:09;11.27;;;6.15;;
76284;SDS011;65096;50.998;7.098;2023-03-01T12:54:40;12.48;;;6.00;;
76284;SDS011;65096;50.998;7.098;2023-03-01T12:57:09;12.27;;;6.63;;
76284;SDS011;65096;50.998;7.098;2023-03-01T12:59:45;9.65;;;6.00;;
76284;SDS011;65096;50.998;7.098;2023-03-01T13:02:19;10.82;;;7.07;;
76284;SDS011;65096;50.998;7.098;2023-03-01T13:04:52;10.93;;;6.88;;
76284;SDS011;65096;50.998;7.098;2023-03-01T13:07:29;13.60;;;7.68;;
76284;SDS011;65096;50.998;7.098;2023-03-01T13:10:05;14.10;;;7.38;;
76284;SDS011;65096;50.998;7.098;2023-03-01T13:12:46;11.65;;;6.53;;
76284;SDS011;65096;50.998;7.098;2023-03-01T13:15:26;12.52;;;6.47;;
76284;SDS011;65096;50.998;7.098;2023-03-01T13:17:54;13.02;;;7.45;;
76284;SDS011;65096;50.998;7.098;2023-03-01T13:20:23;10.73;;;5.97;;
76284;SDS011;65096;50.998;7.098;2023-03-01T13:23:00;12.20;;;6.18;;
76284;SDS011;65096;50.998;7.098;2023-03-01T13:25:29;11.55;;;6.90;;
76284;SDS011;65096;50.998;7.098;2023-03-01T13:30:57;12.50;;;6.78;;
76284;SDS011;65096;50.998;7.098;2023-03-01T13:33:37;12.40;;;6.50;;
76284;SDS011;65096;50.998;7.098;2023-03-01T13:36:06;13.20;;;7.15;;
76284;SDS011;65096;50.998;7.098;2023-03-01T13:38:37;13.13;;;6.28;;
76284;SDS011;65096;50.998;7.098;2023-03-01T13:41:14;12.48;;;6.50;;
76284;SDS011;65096;50.998;7.098;2023-03-01T13:43:41;9.98;;;5.88;;
76284;SDS011;65096;50.998;7.098;2023-03-01T13:46:14;12.10;;;6.50;;
76284;SDS011;65096;50.998;7.098;2023-03-01T13:48:44;9.70;;;5.28;;
76284;SDS011;65096;50.998;7.098;2023-03-01T13:51:16;11.52;;;7.07;;
76284;SDS011;65096;50.998;7.098;2023-03-01T13:53:49;11.32;;;6.75;;
76284;SDS011;65096;50.998;7.098;2023-03-01T13:56:17;10.15;;;5.72;;
76284;SDS011;65096;50.998;7.098;2023-03-01T13:58:48;11.88;;;6.28;;
76284;SDS011;65096;50.998;7.098;2023-03-01T14:01:23;10.95;;;5.82;;
76284;SDS011;65096;50.998;7.098;2023-03-01T14:03:52;9.88;;;5.97;;
76284;SDS011;65096;50.998;7.098;2023-03-01T14:06:20;11.98;;;6.53;;
76284;SDS011;65096;50.998;7.098;2023-03-01T14:08:49;11.15;;;6.40;;
76284;SDS011;65096;50.998;7.098;2023-03-01T14:11:34;11.15;;;6.30;;
76284;SDS011;65096;50.998;7.098;2023-03-01T14:14:34;10.45;;;5.50;;
76284;SDS011;65096;50.998;7.098;2023-03-01T14:20:11;11.48;;;6.25;;
76284;SDS011;65096;50.998;7.098;2023-03-01T14:22:42;12.20;;;6.72;;
76284;SDS011;65096;50.998;7.098;2023-03-01T14:25:17;9.82;;;6.57;;
76284;SDS011;65096;50.998;7.098;2023-03-01T14:27:50;12.75;;;6.75;;
76284;SDS011;65096;50.998;7.098;2023-03-01T14:30:21;11.90;;;6.63;;
76284;SDS011;65096;50.998;7.098;2023-03-01T14:32:53;11.43;;;6.70;;
76284;SDS011;65096;50.998;7.098;2023-03-01T14:35:22;12.30;;;6.63;;
76284;SDS011;65096;50.998;7.098;2023-03-01T14:37:50;11.90;;;7.07;;
76284;SDS011;65096;50.998;7.098;2023-03-01T14:40:22;11.70;;;6.90;;
76284;SDS011;65096;50.998;7.098;2023-03-01T14:42:50;11.45;;;7.22;;
76284;SDS011;65096;50.998;7.098;2023-03-01T14:45:18;12.20;;;6.88;;
76284;SDS011;65096;50.998;7.098;2023-03-01T14:47:46;15.65;;;6.95;;
76284;SDS011;65096;50.998;7.098;2023-03-01T14:50:21;13.82;;;6.25;;
76284;SDS011;65096;50.998;7.098;2023-03-01T14:52:52;13.20;;;7.03;;
76284;SDS011;65096;50.998;7.098;2023-03-01T14:55:24;11.50;;;6.97;;
76284;SDS011;65096;50.998;7.098;2023-03-01T14:57:53;12.05;;;6.97;;
76284;SDS011;65096;50.998;7.098;2023-03-01T15:00:20;11.77;;;6.90;;
76284;SDS011;65096;50.998;7.098;2023-03-01T15:02:50;13.07;;;7.32;;
76284;SDS011;65096;50.998;7.098;2023-03-01T15:05:22;13.45;;;7.20;;
76284;SDS011;65096;50.998;7.098;2023-03-01T15:07:53;14.20;;;7.43;;
76284;SDS011;65096;50.998;7.098;2023-03-01T15:10:22;13.35;;;7.40;;
76284;SDS011;65096;50.998;7.098;2023-03-01T15:12:50;11.13;;;6.43;;
76284;SDS011;65096;50.998;7.098;2023-03-01T15:18:11;11.25;;;6.47;;
76284;SDS011;65096;50.998;7.098;2023-03-01T15:20:43;11.75;;;5.30;;
76284;SDS011;65096;50.998;7.098;2023-03-01T15:23:23;10.20;;;5.22;;
76284;SDS011;65096;50.998;7.098;2023-03-01T15:25:53;12.18;;;6.90;;
76284;SDS011;65096;50.998;7.098;2023-03-01T15:28:24;13.90;;;6.63;;
76284;SDS011;65096;50.998;7.098;2023-03-01T15:30:57;11.07;;;6.10;;
76284;SDS011;65096;50.998;7.098;2023-03-01T15:33:37;15.25;;;7.88;;
76284;SDS011;65096;50.998;7.098;2023-03-01T15:36:32;10.82;;;6.53;;
76284;SDS011;65096;50.998;7.098;2023-03-01T15:39:04;11.85;;;5.97;;
76284;SDS011;65096;50.998;7.098;2023-03-01T15:41:50;10.27;;;5.50;;
76284;SDS011;65096;50.998;7.098;2023-03-01T15:44:17;11.40;;;5.60;;